createdAt,value
2023-10-27T00:01:21.559Z,1.61
2023-10-27T00:03:48.362Z,1.45
2023-10-27T00:06:15.622Z,0.59
2023-10-27T00:08:42.455Z,0.57
2023-10-27T00:11:09.564Z,0.81
2023-10-27T00:13:36.360Z,0.80
2023-10-27T00:16:11.431Z,1.01
2023-10-27T00:18:38.892Z,1.15
2023-10-27T00:21:05.903Z,0.85
2023-10-27T00:23:33.632Z,0.58
2023-10-27T00:26:01.663Z,0.41
2023-10-27T00:28:29.023Z,0.16
2023-10-27T00:30:55.846Z,-0.37
2023-10-27T00:33:23.252Z,-0.15
2023-10-27T00:35:53.989Z,0.09
2023-10-27T00:38:21.501Z,0.48
2023-10-27T00:40:48.602Z,0.36
2023-10-27T00:43:19.447Z,0.21
2023-10-27T00:45:53.573Z,0.51
2023-10-27T00:48:21.757Z,0.67
2023-10-27T00:50:50.069Z,0.98
2023-10-27T00:53:20.891Z,0.52
2023-10-27T00:55:49.848Z,1.15
2023-10-27T00:58:17.075Z,1.09
2023-10-27T01:00:44.508Z,0.76
2023-10-27T01:03:11.264Z,0.28
2023-10-27T01:05:38.138Z,0.31
2023-10-27T01:08:05.101Z,0.02
2023-10-27T01:10:32.331Z,0.10
2023-10-27T01:12:59.317Z,-0.40
2023-10-27T01:15:26.943Z,0.03
2023-10-27T01:17:53.782Z,0.28
2023-10-27T01:20:20.841Z,-0.30
2023-10-27T01:22:48.736Z,-0.49
2023-10-27T01:25:16.784Z,-0.52
2023-10-27T01:27:44.499Z,-0.06
2023-10-27T01:30:12.198Z,-0.66
2023-10-27T01:32:41.731Z,-0.45
2023-10-27T01:35:09.357Z,-0.38
2023-10-27T01:37:36.592Z,-0.88
2023-10-27T01:40:06.811Z,-1.23
2023-10-27T01:42:36.002Z,-1.09
2023-10-27T01:45:06.657Z,-1.13
2023-10-27T01:47:34.182Z,-1.15
2023-10-27T01:50:01.043Z,-0.95
2023-10-27T01:52:27.988Z,-1.02
2023-10-27T01:54:54.958Z,-1.53
2023-10-27T01:57:24.358Z,-1.47
2023-10-27T01:59:52.280Z,-0.49
2023-10-27T02:02:19.561Z,-0.84
2023-10-27T02:04:46.747Z,-1.55
2023-10-27T02:07:14.178Z,-1.68
2023-10-27T02:09:41.044Z,-1.36
2023-10-27T02:12:11.717Z,-1.13
2023-10-27T02:14:39.805Z,-1.14
2023-10-27T02:17:06.844Z,-1.41
2023-10-27T02:19:33.780Z,-1.20
2023-10-27T02:22:01.035Z,-1.13
2023-10-27T02:24:29.242Z,-1.27
2023-10-27T02:26:56.148Z,-1.04
2023-10-27T02:29:23.088Z,-1.17
2023-10-27T02:31:49.820Z,-1.16
2023-10-27T02:34:16.680Z,-1.83
2023-10-27T02:36:43.589Z,-0.93
2023-10-27T02:39:10.461Z,-1.01
2023-10-27T02:41:37.431Z,-1.02
2023-10-27T02:44:04.707Z,-1.06
2023-10-27T02:46:33.275Z,-0.92
2023-10-27T02:49:01.548Z,-1.23
2023-10-27T02:51:28.418Z,-1.40
2023-10-27T02:53:55.502Z,-1.49
2023-10-27T02:56:22.480Z,-1.57
2023-10-27T02:58:49.231Z,-1.24
2023-10-27T03:01:16.266Z,-1.91
2023-10-27T03:03:45.047Z,-1.05
2023-10-27T03:06:13.342Z,-1.38
2023-10-27T03:08:41.354Z,-1.28
2023-10-27T03:11:09.479Z,-1.13
2023-10-27T03:13:37.050Z,-0.78
2023-10-27T03:16:04.686Z,-1.08
2023-10-27T03:18:32.044Z,-1.22
2023-10-27T03:21:00.551Z,-1.14
2023-10-27T03:23:28.620Z,-1.41
2023-10-27T03:25:56.148Z,-1.57
2023-10-27T03:28:23.084Z,-0.78
2023-10-27T03:30:51.092Z,-1.23
2023-10-27T03:33:18.537Z,-1.36
2023-10-27T03:35:47.931Z,-1.51
2023-10-27T03:38:15.261Z,-1.51
2023-10-27T03:40:44.465Z,-0.81
2023-10-27T03:43:11.980Z,-0.52
2023-10-27T03:45:38.877Z,-0.81
2023-10-27T03:48:05.959Z,-1.41
2023-10-27T03:50:33.118Z,-1.06
2023-10-27T03:53:00.104Z,-1.24
2023-10-27T03:55:27.107Z,-1.20
2023-10-27T03:57:56.565Z,-0.93
2023-10-27T04:00:26.307Z,-1.09
2023-10-27T04:02:53.313Z,-0.88
2023-10-27T04:05:20.269Z,-0.87
2023-10-27T04:07:47.096Z,-1.26
2023-10-27T04:10:14.001Z,-1.19
2023-10-27T04:12:40.881Z,-0.78
2023-10-27T04:15:10.135Z,-1.07
2023-10-27T04:17:37.576Z,-1.36
2023-10-27T04:20:05.642Z,-1.12
2023-10-27T04:22:32.487Z,-1.00
2023-10-27T04:24:59.466Z,-1.06
2023-10-27T04:27:26.511Z,-0.94
2023-10-27T04:29:53.378Z,-0.93
2023-10-27T04:32:20.468Z,-0.73
2023-10-27T04:34:47.316Z,-1.25
2023-10-27T04:37:14.438Z,-0.77
2023-10-27T04:39:41.439Z,-1.09
2023-10-27T04:42:09.713Z,-0.98
2023-10-27T04:44:36.798Z,-0.79
2023-10-27T04:47:03.854Z,-1.02
2023-10-27T04:49:30.824Z,-1.11
2023-10-27T04:51:57.661Z,-0.98
2023-10-27T04:54:24.495Z,-1.19
2023-10-27T04:56:51.297Z,-0.88
2023-10-27T04:59:18.065Z,-0.61
2023-10-27T05:01:44.989Z,-0.41
2023-10-27T05:04:12.026Z,-0.69
2023-10-27T05:06:39.003Z,-0.31
2023-10-27T05:09:05.909Z,-0.10
2023-10-27T05:11:32.710Z,-0.66
2023-10-27T05:13:59.464Z,-0.28
2023-10-27T05:16:26.236Z,-0.82
2023-10-27T05:18:53.094Z,-0.85
2023-10-27T05:21:20.118Z,-0.75
2023-10-27T05:23:46.991Z,-0.70
2023-10-27T05:26:13.762Z,-0.87
2023-10-27T05:28:40.688Z,-0.57
2023-10-27T05:31:07.502Z,-0.43
2023-10-27T05:33:34.430Z,-1.01
2023-10-27T05:36:01.199Z,-0.97
2023-10-27T05:38:27.997Z,-0.89
2023-10-27T05:40:54.832Z,-0.81
2023-10-27T05:43:21.696Z,-0.71
2023-10-27T05:45:48.583Z,-0.46
2023-10-27T05:48:15.424Z,-0.85
2023-10-27T05:50:42.333Z,-0.88
2023-10-27T05:53:09.245Z,-0.44
2023-10-27T05:55:36.278Z,-0.55
2023-10-27T05:58:03.608Z,-0.50
2023-10-27T06:00:30.462Z,-0.81
2023-10-27T06:02:57.731Z,-0.85
2023-10-27T06:05:24.643Z,-0.81
2023-10-27T06:07:51.979Z,-0.92
2023-10-27T06:10:19.520Z,-1.12
2023-10-27T06:12:46.421Z,-1.24
2023-10-27T06:15:13.456Z,-0.98
2023-10-27T06:17:40.420Z,-0.98
2023-10-27T06:20:16.834Z,-0.75
2023-10-27T06:22:45.529Z,-0.86
2023-10-27T06:25:12.578Z,-1.06
2023-10-27T06:27:39.554Z,-0.82
2023-10-27T06:30:07.596Z,-0.92
2023-10-27T06:32:34.501Z,-0.80
2023-10-27T06:35:01.551Z,-1.00
2023-10-27T06:37:28.493Z,-0.33
2023-10-27T06:40:00.598Z,-0.28
2023-10-27T06:42:27.670Z,-0.51
2023-10-27T06:44:54.548Z,-0.32
2023-10-27T06:47:23.592Z,-0.40
2023-10-27T06:49:50.948Z,-0.24
2023-10-27T06:52:17.812Z,-0.06
2023-10-27T06:54:45.049Z,-0.06
2023-10-27T06:57:12.121Z,-0.03
2023-10-27T06:59:38.986Z,-0.12
2023-10-27T07:02:06.019Z,-0.23
2023-10-27T07:04:32.845Z,-0.18
2023-10-27T07:06:59.860Z,0.28
2023-10-27T07:09:27.611Z,0.46
2023-10-27T07:11:57.236Z,0.40
2023-10-27T07:14:24.057Z,0.16
2023-10-27T07:16:53.423Z,0.37
2023-10-27T07:19:21.937Z,0.60
2023-10-27T07:21:48.896Z,0.47
2023-10-27T07:24:15.968Z,0.70
2023-10-27T07:26:42.813Z,0.81
2023-10-27T07:29:10.195Z,0.90
2023-10-27T07:31:39.257Z,0.98
2023-10-27T07:34:09.211Z,1.00
2023-10-27T07:36:36.237Z,0.36
2023-10-27T07:39:03.561Z,0.81
2023-10-27T07:41:30.419Z,0.47
2023-10-27T07:43:57.199Z,0.17
2023-10-27T07:46:23.941Z,0.52
2023-10-27T07:48:51.172Z,0.19
2023-10-27T07:51:18.002Z,0.49
2023-10-27T07:53:45.042Z,-0.02
2023-10-27T07:56:12.185Z,0.38
2023-10-27T07:58:39.885Z,0.32
2023-10-27T08:01:07.225Z,0.20
2023-10-27T08:03:35.222Z,0.55
2023-10-27T08:06:05.991Z,1.04
2023-10-27T08:08:33.613Z,0.92
2023-10-27T08:11:00.978Z,-0.08
2023-10-27T08:13:28.076Z,0.41
2023-10-27T08:15:54.918Z,0.20
2023-10-27T08:18:22.402Z,0.09
2023-10-27T08:20:51.451Z,0.34
2023-10-27T08:23:18.191Z,0.66
2023-10-27T08:25:51.631Z,0.74
2023-10-27T08:28:19.696Z,0.23
2023-10-27T08:30:46.681Z,0.74
2023-10-27T08:33:15.623Z,0.91
2023-10-27T08:35:42.601Z,0.84
2023-10-27T08:38:09.433Z,0.55
2023-10-27T08:40:36.700Z,0.67
2023-10-27T08:43:06.768Z,0.05
2023-10-27T08:45:34.063Z,0.85
2023-10-27T08:48:02.077Z,0.80
2023-10-27T08:50:32.537Z,0.95
2023-10-27T08:53:00.702Z,0.79
2023-10-27T08:55:28.367Z,1.20
2023-10-27T08:57:57.192Z,0.68
2023-10-27T09:00:24.033Z,0.44
2023-10-27T09:02:50.819Z,0.54
2023-10-27T09:05:18.928Z,0.50
2023-10-27T09:07:47.111Z,0.28
2023-10-27T09:10:14.526Z,0.28
2023-10-27T09:12:42.759Z,0.19
2023-10-27T09:15:11.083Z,0.27
2023-10-27T09:17:55.384Z,0.29
2023-10-27T09:20:22.972Z,-0.19
2023-10-27T09:23:16.159Z,0.13
2023-10-27T09:25:45.282Z,0.09
2023-10-27T09:28:12.641Z,0.02
2023-10-27T09:30:42.280Z,0.32
2023-10-27T09:33:27.731Z,0.40
2023-10-27T09:35:55.397Z,0.56
2023-10-27T09:38:23.751Z,0.18
2023-10-27T09:40:51.333Z,-0.26
2023-10-27T09:43:22.650Z,-0.07
2023-10-27T09:45:53.137Z,-0.28
2023-10-27T09:48:28.999Z,0.25
2023-10-27T09:51:12.953Z,-0.13
2023-10-27T09:53:40.736Z,0.86
2023-10-27T09:56:09.235Z,1.01
2023-10-27T09:58:37.051Z,0.54
2023-10-27T10:01:05.235Z,1.72
2023-10-27T10:03:33.455Z,1.47
2023-10-27T10:06:18.905Z,0.85
2023-10-27T10:09:11.744Z,1.37
2023-10-27T10:11:51.517Z,1.89
2023-10-27T10:14:37.190Z,1.30
2023-10-27T10:17:05.510Z,1.30
2023-10-27T10:19:52.101Z,0.76
2023-10-27T10:22:43.698Z,3.48
2023-10-27T10:25:16.818Z,3.23
2023-10-27T10:28:08.803Z,3.70
2023-10-27T10:30:40.734Z,2.99
2023-10-27T10:33:30.340Z,3.94
2023-10-27T10:36:13.123Z,3.69
2023-10-27T10:38:42.362Z,2.82
2023-10-27T10:41:09.163Z,3.91
2023-10-27T10:43:39.443Z,2.80
2023-10-27T10:46:14.069Z,3.12
2023-10-27T10:48:45.931Z,3.57
2023-10-27T10:51:53.335Z,4.11
2023-10-27T10:54:21.812Z,3.22
2023-10-27T10:56:48.556Z,2.34
2023-10-27T10:59:21.703Z,3.10
2023-10-27T11:01:56.196Z,3.69
2023-10-27T11:07:06.140Z,2.57
2023-10-27T11:09:33.143Z,3.51
2023-10-27T11:12:01.318Z,3.71
2023-10-27T11:14:28.302Z,4.35
2023-10-27T11:16:57.198Z,3.97
2023-10-27T11:19:24.082Z,5.37
2023-10-27T11:21:55.161Z,5.24
2023-10-27T11:24:23.697Z,3.16
2023-10-27T11:26:51.139Z,3.48
2023-10-27T11:29:18.270Z,3.51
2023-10-27T11:31:47.062Z,4.39
2023-10-27T11:34:27.641Z,4.92
2023-10-27T11:37:09.609Z,4.80
2023-10-27T11:39:37.404Z,4.94
2023-10-27T11:42:04.690Z,5.17
2023-10-27T11:44:36.474Z,5.25
2023-10-27T11:47:03.485Z,4.33
2023-10-27T11:49:31.764Z,4.65
2023-10-27T11:51:58.901Z,4.67
2023-10-27T11:54:27.576Z,5.74
2023-10-27T11:56:54.622Z,4.89
2023-10-27T11:59:26.374Z,5.53
2023-10-27T12:01:54.245Z,5.04
2023-10-27T12:04:21.552Z,5.57
2023-10-27T12:06:48.845Z,5.80
2023-10-27T12:09:15.676Z,5.45
2023-10-27T12:11:42.679Z,5.25
2023-10-27T12:14:12.012Z,5.90
2023-10-27T12:16:39.238Z,4.64
2023-10-27T12:19:06.140Z,4.02
2023-10-27T12:21:34.295Z,4.94
2023-10-27T12:24:01.335Z,4.87
2023-10-27T12:26:28.928Z,3.37
2023-10-27T12:28:55.980Z,3.51
2023-10-27T12:31:22.823Z,5.44
2023-10-27T12:33:52.882Z,4.51
2023-10-27T12:36:20.071Z,4.27
2023-10-27T12:38:48.419Z,3.95
2023-10-27T12:41:15.267Z,4.04
2023-10-27T12:43:42.113Z,3.41
2023-10-27T12:46:10.363Z,3.53
2023-10-27T12:48:37.404Z,3.15
2023-10-27T12:51:04.549Z,2.85
2023-10-27T12:53:32.338Z,3.40
2023-10-27T12:55:59.523Z,3.55
2023-10-27T12:58:27.083Z,2.96
2023-10-27T13:00:54.073Z,2.19
2023-10-27T13:03:21.117Z,2.04
2023-10-27T13:05:48.148Z,2.45
2023-10-27T13:08:16.348Z,1.99
2023-10-27T13:10:45.512Z,1.72
2023-10-27T13:13:14.650Z,2.43
2023-10-27T13:15:42.132Z,2.25
2023-10-27T13:18:09.166Z,1.75
2023-10-27T13:20:36.270Z,2.05
2023-10-27T13:23:04.496Z,2.21
2023-10-27T13:25:31.712Z,2.75
2023-10-27T13:27:59.246Z,2.13
2023-10-27T13:30:26.047Z,3.01
2023-10-27T13:32:53.116Z,4.20
2023-10-27T13:35:23.826Z,3.91
2023-10-27T13:37:54.612Z,2.86
2023-10-27T13:40:22.142Z,3.11
2023-10-27T13:42:49.081Z,4.24
2023-10-27T13:45:16.886Z,3.91
2023-10-27T13:47:44.205Z,3.57
2023-10-27T13:50:12.674Z,4.61
2023-10-27T13:52:40.593Z,3.97
2023-10-27T13:55:10.140Z,3.91
2023-10-27T13:57:38.739Z,3.58
2023-10-27T14:00:10.698Z,3.38
2023-10-27T14:02:43.037Z,3.40
2023-10-27T14:05:13.952Z,2.77
2023-10-27T14:07:41.543Z,2.96
2023-10-27T14:10:10.423Z,2.78
2023-10-27T14:12:38.874Z,2.46
2023-10-27T14:15:08.276Z,1.89
2023-10-27T14:17:35.296Z,2.36
2023-10-27T14:20:02.873Z,1.65
2023-10-27T14:22:32.409Z,1.65
2023-10-27T14:25:00.170Z,2.00
2023-10-27T14:27:29.174Z,1.56
2023-10-27T14:29:56.407Z,1.52
2023-10-27T14:32:23.422Z,0.79
2023-10-27T14:34:50.534Z,1.12
2023-10-27T14:37:24.606Z,0.90
2023-10-27T14:39:52.228Z,0.68
2023-10-27T14:42:19.050Z,1.08
2023-10-27T14:44:46.085Z,0.94
2023-10-27T14:47:13.140Z,0.76
2023-10-27T14:49:40.812Z,0.73
2023-10-27T14:52:11.218Z,1.27
2023-10-27T14:54:43.834Z,1.05
2023-10-27T14:57:11.478Z,1.32
2023-10-27T14:59:38.384Z,0.51
2023-10-27T15:02:05.146Z,0.92
2023-10-27T15:04:32.022Z,0.94
2023-10-27T15:07:01.245Z,0.91
2023-10-27T15:09:28.318Z,0.73
2023-10-27T15:11:55.635Z,0.66
2023-10-27T15:14:22.534Z,0.92
2023-10-27T15:16:49.455Z,0.40
2023-10-27T15:19:19.197Z,0.55
2023-10-27T15:21:46.380Z,0.39
2023-10-27T15:24:13.237Z,0.29
2023-10-27T15:26:40.150Z,0.51
2023-10-27T15:29:07.189Z,0.73
2023-10-27T15:31:34.006Z,0.53
2023-10-27T15:34:01.083Z,0.37
2023-10-27T15:36:28.693Z,0.51
2023-10-27T15:39:01.428Z,0.24
2023-10-27T15:41:39.854Z,0.87
2023-10-27T15:44:07.671Z,0.21
2023-10-27T15:46:36.250Z,-0.14
2023-10-27T15:49:03.717Z,0.20
2023-10-27T15:51:30.563Z,-0.24
2023-10-27T15:54:01.240Z,0.55
2023-10-27T15:56:28.402Z,0.13
2023-10-27T15:58:56.565Z,0.08
2023-10-27T16:01:24.139Z,0.14
2023-10-27T16:03:51.346Z,-0.22
2023-10-27T16:06:21.814Z,0.21
2023-10-27T16:08:48.621Z,-0.02
2023-10-27T16:11:15.901Z,0.30
2023-10-27T16:13:45.795Z,0.09
2023-10-27T16:16:12.767Z,-0.08
2023-10-27T16:18:40.152Z,-0.14
2023-10-27T16:21:07.494Z,-0.09
2023-10-27T16:23:34.520Z,0.04
2023-10-27T16:26:07.345Z,-0.18
2023-10-27T16:28:34.103Z,0.35
2023-10-27T16:31:02.831Z,-0.32
2023-10-27T16:33:29.969Z,0.00
2023-10-27T16:36:01.214Z,0.06
2023-10-27T16:38:28.461Z,0.09
2023-10-27T16:40:55.411Z,-0.39
2023-10-27T16:43:23.926Z,-0.50
2023-10-27T16:45:50.832Z,-0.34
2023-10-27T16:48:20.312Z,-0.11
2023-10-27T16:50:47.389Z,-0.46
2023-10-27T16:53:14.131Z,-0.15
2023-10-27T16:55:40.908Z,-0.69
2023-10-27T16:58:07.790Z,-0.98
2023-10-27T17:00:34.551Z,-1.21
2023-10-27T17:03:02.579Z,-0.86
2023-10-27T17:05:30.370Z,-1.14
2023-10-27T17:07:58.999Z,-1.38
2023-10-27T17:10:26.220Z,-1.61
2023-10-27T17:12:53.396Z,-1.77
2023-10-27T17:15:20.302Z,-1.13
2023-10-27T17:17:47.201Z,-1.51
2023-10-27T17:20:17.314Z,-1.43
2023-10-27T17:22:46.059Z,-1.21
2023-10-27T17:25:14.093Z,-1.72
2023-10-27T17:27:40.956Z,-1.69
2023-10-27T17:30:12.101Z,-1.52
2023-10-27T17:32:42.192Z,-1.67
2023-10-27T17:35:09.140Z,-1.85
2023-10-27T17:37:36.139Z,-1.48
2023-10-27T17:40:03.596Z,-2.04
2023-10-27T17:42:34.546Z,-1.77
2023-10-27T17:45:01.807Z,-1.90
2023-10-27T17:47:28.954Z,-2.04
2023-10-27T17:49:57.672Z,-2.01
2023-10-27T17:52:24.616Z,-2.07
2023-10-27T17:54:51.408Z,-1.84
2023-10-27T17:57:20.938Z,-2.02
2023-10-27T17:59:47.979Z,-2.07
2023-10-27T18:02:14.854Z,-2.53
2023-10-27T18:04:41.676Z,-2.22
2023-10-27T18:07:09.357Z,-2.24
2023-10-27T18:09:37.927Z,-2.17
2023-10-27T18:12:06.793Z,-2.58
2023-10-27T18:14:33.888Z,-2.42
2023-10-27T18:17:02.006Z,-2.55
2023-10-27T18:19:28.868Z,-2.37
2023-10-27T18:21:57.188Z,-2.78
2023-10-27T18:24:24.128Z,-2.50
2023-10-27T18:26:51.083Z,-2.73
2023-10-27T18:29:18.210Z,-2.62
2023-10-27T18:31:47.490Z,-2.61
2023-10-27T18:34:14.183Z,-3.04
2023-10-27T18:36:40.986Z,-2.52
2023-10-27T18:39:07.702Z,-2.82
2023-10-27T18:41:36.590Z,-2.56
2023-10-27T18:44:03.361Z,-2.58
2023-10-27T18:46:30.240Z,-2.95
2023-10-27T18:48:57.053Z,-3.23
2023-10-27T18:51:23.877Z,-3.13
2023-10-27T18:53:50.588Z,-3.14
2023-10-27T18:56:18.056Z,-3.45
2023-10-27T18:58:47.035Z,-3.28
2023-10-27T19:01:15.807Z,-3.07
2023-10-27T19:03:44.704Z,-3.20
2023-10-27T19:06:12.318Z,-3.30
2023-10-27T19:08:39.349Z,-3.53
2023-10-27T19:11:08.879Z,-3.72
2023-10-27T19:13:37.176Z,-3.96
2023-10-27T19:16:05.627Z,-3.97
2023-10-27T19:18:37.072Z,-3.67
2023-10-27T19:21:13.734Z,-3.88
2023-10-27T19:23:44.152Z,-3.94
2023-10-27T19:26:16.104Z,-3.81
2023-10-27T19:28:44.348Z,-3.86
2023-10-27T19:31:15.750Z,-3.92
2023-10-27T19:33:45.207Z,-3.85
2023-10-27T19:36:13.280Z,-3.91
2023-10-27T19:38:41.465Z,-3.77
2023-10-27T19:41:09.457Z,-3.88
2023-10-27T19:43:36.645Z,-4.02
2023-10-27T19:46:10.580Z,-4.15
2023-10-27T19:48:39.447Z,-4.08
2023-10-27T19:51:06.830Z,-3.77
2023-10-27T19:53:35.502Z,-3.95
2023-10-27T19:56:02.683Z,-3.35
2023-10-27T19:58:29.770Z,-3.59
2023-10-27T20:00:56.751Z,-3.95
2023-10-27T20:03:23.678Z,-4.06
2023-10-27T20:05:52.459Z,-3.88
2023-10-27T20:08:19.682Z,-3.95
2023-10-27T20:10:50.125Z,-3.99
2023-10-27T20:13:17.324Z,-3.71
2023-10-27T20:15:46.121Z,-3.74
2023-10-27T20:18:13.228Z,-3.94
2023-10-27T20:20:45.591Z,-4.10
2023-10-27T20:23:13.366Z,-4.37
2023-10-27T20:25:40.516Z,-4.30
2023-10-27T20:28:11.333Z,-4.15
2023-10-27T20:30:39.124Z,-4.05
2023-10-27T20:33:07.235Z,-4.54
2023-10-27T20:35:34.103Z,-4.96
2023-10-27T20:38:01.140Z,-4.48
2023-10-27T20:40:28.018Z,-4.40
2023-10-27T20:42:56.665Z,-4.15
2023-10-27T20:45:24.310Z,-4.67
2023-10-27T20:47:52.169Z,-4.79
2023-10-27T20:50:22.019Z,-4.83
2023-10-27T20:52:48.977Z,-4.74
2023-10-27T20:55:19.714Z,-4.71
2023-10-27T20:57:48.120Z,-4.78
2023-10-27T21:00:16.830Z,-4.84
2023-10-27T21:02:44.524Z,-5.19
2023-10-27T21:05:11.855Z,-4.94
2023-10-27T21:07:38.954Z,-5.07
2023-10-27T21:10:06.837Z,-5.49
2023-10-27T21:12:33.874Z,-5.30
2023-10-27T21:15:01.182Z,-4.90
2023-10-27T21:17:28.730Z,-5.00
2023-10-27T21:19:56.035Z,-5.14
2023-10-27T21:22:23.566Z,-5.23
2023-10-27T21:24:53.109Z,-5.16
2023-10-27T21:27:21.228Z,-5.67
2023-10-27T21:29:51.509Z,-5.32
2023-10-27T21:32:19.260Z,-5.14
2023-10-27T21:34:46.997Z,-5.10
2023-10-27T21:37:15.059Z,-5.23
2023-10-27T21:39:46.246Z,-5.14
2023-10-27T21:42:14.007Z,-5.21
2023-10-27T21:44:40.831Z,-5.18
2023-10-27T21:47:09.203Z,-5.43
2023-10-27T21:49:36.286Z,-5.69
2023-10-27T21:52:06.621Z,-5.18
2023-10-27T21:54:34.415Z,-5.29
2023-10-27T21:57:02.140Z,-5.26
2023-10-27T21:59:29.362Z,-5.19
2023-10-27T22:01:56.172Z,-5.46
2023-10-27T22:04:23.583Z,-5.03
2023-10-27T22:06:50.465Z,-5.31
2023-10-27T22:09:17.400Z,-5.39
2023-10-27T22:11:46.044Z,-5.47
2023-10-27T22:14:12.798Z,-5.39
2023-10-27T22:16:40.904Z,-5.51
2023-10-27T22:19:10.444Z,-5.39
2023-10-27T22:21:37.341Z,-5.78
2023-10-27T22:24:04.485Z,-5.62
2023-10-27T22:26:31.233Z,-5.86
2023-10-27T22:28:58.788Z,-5.51
2023-10-27T22:31:25.611Z,-5.62
2023-10-27T22:33:52.552Z,-5.82
2023-10-27T22:36:20.501Z,-6.27
2023-10-27T22:38:49.112Z,-5.90
2023-10-27T22:41:16.113Z,-5.72
2023-10-27T22:43:43.170Z,-5.80
2023-10-27T22:46:13.290Z,-6.00
2023-10-27T22:48:40.140Z,-6.05
2023-10-27T22:51:12.834Z,-6.13
2023-10-27T22:53:41.042Z,-6.19
2023-10-27T22:56:09.101Z,-6.10
2023-10-27T22:58:36.016Z,-6.02
2023-10-27T23:01:05.841Z,-6.02
2023-10-27T23:03:32.990Z,-6.14
2023-10-27T23:06:10.127Z,-5.83
2023-10-27T23:08:37.514Z,-5.86
2023-10-27T23:11:12.381Z,-5.80
2023-10-27T23:13:40.956Z,-5.94
2023-10-27T23:16:08.807Z,-5.81
2023-10-27T23:18:42.038Z,-5.77
2023-10-27T23:21:09.695Z,-5.65
2023-10-27T23:23:37.432Z,-5.70
2023-10-27T23:26:08.271Z,-5.72
2023-10-27T23:28:36.208Z,-5.71
2023-10-27T23:31:04.244Z,-5.82
2023-10-27T23:33:31.352Z,-5.73
2023-10-27T23:36:01.110Z,-5.35
2023-10-27T23:38:32.139Z,-5.15
2023-10-27T23:41:05.324Z,-5.22
2023-10-27T23:43:32.716Z,-5.67
2023-10-27T23:46:00.725Z,-5.47
2023-10-27T23:48:31.008Z,-5.67
2023-10-27T23:50:59.140Z,-5.53
2023-10-27T23:53:28.335Z,-5.88
2023-10-27T23:55:55.667Z,-5.35
2023-10-27T23:58:22.514Z,-5.51
